Time;durP1;ratioP1;P1;durP2;ratioP2;P2;SDS_P1;SDS_P2;PMS_P1;PMS_P2;Temp;Humidity;BMP_temperature;BMP_pressure;BME280_temperature;BME280_humidity;BME280_pressure;Samples;Min_cycle;Max_cycle;Signal;HPM_P1;HPM_P2
2023/10/02 00:01:52;;;;;;;113.82;108.32;;;;;;;20.83;57.24;101941.63;4973129;28;20031;-66
2023/10/02 00:04:18;;;;;;;115.88;110.38;;;;;;;20.82;57.41;101935.31;4973170;28;20085;-68
2023/10/02 00:06:48;;;;;;;113.90;108.25;;;;;;;20.80;57.81;101943.00;4973521;28;20050;-68
2023/10/02 00:09:14;;;;;;;114.40;108.68;;;;;;;20.79;57.84;101935.03;4973427;28;20070;-68
2023/10/02 00:11:40;;;;;;;110.15;104.88;;;;;;;20.79;57.31;101935.03;4973045;28;20475;-67
2023/10/02 00:14:19;;;;;;;113.68;108.28;;;;;;;20.78;57.72;101933.41;4972412;28;20034;-67
2023/10/02 00:16:58;;;;;;;116.00;110.43;;;;;;;20.78;57.37;101936.16;4969403;28;20038;-68
2023/10/02 00:19:27;;;;;;;114.35;108.57;;;;;;;20.77;57.78;101931.78;4954610;28;20043;-68
2023/10/02 00:21:57;;;;;;;119.40;113.68;;;;;;;20.74;57.87;101934.00;4954551;28;20032;-68
2023/10/02 00:24:27;;;;;;;113.88;108.20;;;;;;;20.74;57.46;101935.91;4954060;28;20035;-67
2023/10/02 00:26:58;;;;;;;111.20;105.60;;;;;;;20.72;57.75;101938.94;4954148;28;20042;-68
2023/10/02 00:29:28;;;;;;;113.38;107.85;;;;;;;20.71;57.38;101926.31;4954438;28;20031;-67
2023/10/02 00:31:54;;;;;;;112.95;107.03;;;;;;;20.70;57.72;101937.56;4954491;28;20566;-66
2023/10/02 00:34:30;;;;;;;114.72;108.88;;;;;;;20.69;57.33;101936.75;4953703;28;20428;-67
2023/10/02 00:37:11;;;;;;;115.35;109.53;;;;;;;20.68;57.67;101935.09;4954280;28;20456;-66
2023/10/02 00:39:39;;;;;;;115.00;109.60;;;;;;;20.67;57.89;101933.47;4954262;28;20032;-68
2023/10/02 00:42:24;;;;;;;113.60;107.93;;;;;;;20.66;57.63;101936.47;4953833;28;20117;-66
2023/10/02 00:45:02;;;;;;;113.63;108.25;;;;;;;20.64;57.60;101934.03;4953909;28;20114;-66
2023/10/02 00:47:41;;;;;;;112.22;106.78;;;;;;;20.62;57.17;101925.25;4954280;28;20023;-67
2023/10/02 00:50:17;;;;;;;112.60;107.25;;;;;;;20.62;57.57;101921.69;4953524;28;20423;-68
2023/10/02 00:52:55;;;;;;;112.20;107.10;;;;;;;20.60;57.73;101921.97;4953952;28;20039;-65
2023/10/02 00:55:23;;;;;;;109.00;103.70;;;;;;;20.58;57.80;101913.19;4953355;28;20090;-68
2023/10/02 00:57:51;;;;;;;112.55;107.05;;;;;;;20.58;57.35;101915.94;4954131;28;20030;-68
2023/10/02 01:00:19;;;;;;;115.80;109.90;;;;;;;20.58;57.62;101912.38;4953603;28;20035;-67
2023/10/02 01:02:46;;;;;;;112.97;107.43;;;;;;;20.56;57.37;101915.38;4953815;28;20035;-68
2023/10/02 01:05:16;;;;;;;111.60;106.40;;;;;;;20.55;57.42;101913.75;4953655;28;20495;-69
2023/10/02 01:07:46;;;;;;;109.60;104.20;;;;;;;20.55;57.28;101912.94;4953681;28;20051;-68
2023/10/02 01:10:23;;;;;;;110.88;105.68;;;;;;;20.53;57.42;101911.25;4953490;28;20031;-68
2023/10/02 01:12:53;;;;;;;114.63;108.82;;;;;;;20.51;57.47;101905.25;4953835;28;20035;-68
2023/10/02 01:15:20;;;;;;;112.38;106.30;;;;;;;20.50;57.38;101905.50;4953664;28;20038;-66
2023/10/02 01:17:51;;;;;;;108.15;102.95;;;;;;;20.48;57.27;101903.03;4953708;28;20118;-67
2023/10/02 01:20:38;;;;;;;110.28;104.70;;;;;;;20.48;57.43;101903.03;4952270;29;20031;-67
2023/10/02 01:23:16;;;;;;;108.80;102.95;;;;;;;20.46;57.75;101898.94;4953991;28;20044;-67
2023/10/02 01:25:46;;;;;;;105.35;100.22;;;;;;;20.45;57.50;101900.03;4953783;28;20110;-67
2023/10/02 01:28:20;;;;;;;110.35;104.38;;;;;;;20.44;57.37;101909.41;4953450;28;20042;-69
2023/10/02 01:30:47;;;;;;;109.60;104.03;;;;;;;20.43;57.45;101910.47;4953654;28;20059;-67
2023/10/02 01:33:26;;;;;;;110.72;105.32;;;;;;;20.42;57.96;101912.41;4953113;28;20078;-68
2023/10/02 01:35:56;;;;;;;110.82;105.43;;;;;;;20.41;57.27;101905.28;4953495;28;20043;-68
2023/10/02 01:38:29;;;;;;;112.70;106.55;;;;;;;20.39;57.55;101902.00;4953136;28;20031;-68
2023/10/02 01:41:06;;;;;;;108.00;102.90;;;;;;;20.39;57.77;101898.44;4968372;28;20031;-68
2023/10/02 01:43:43;;;;;;;111.13;105.93;;;;;;;20.39;57.32;101909.41;4952816;28;20201;-68
2023/10/02 01:46:10;;;;;;;111.65;106.07;;;;;;;20.36;57.63;101908.06;4953685;28;20106;-71
2023/10/02 01:48:40;;;;;;;110.90;105.18;;;;;;;20.35;57.51;101898.16;4953276;28;20126;-68
2023/10/02 01:51:20;;;;;;;109.95;104.40;;;;;;;20.35;57.83;101897.34;4953467;28;20031;-66
2023/10/02 01:53:54;;;;;;;107.63;102.00;;;;;;;20.33;57.70;101897.63;4952167;28;20086;-67
2023/10/02 01:56:25;;;;;;;108.28;102.97;;;;;;;20.32;57.88;101898.72;4953106;28;20051;-66
2023/10/02 01:58:52;;;;;;;108.30;102.90;;;;;;;20.30;57.85;101899.00;4953626;28;20306;-67
2023/10/02 02:01:23;;;;;;;108.63;103.40;;;;;;;20.30;57.28;101903.66;4952956;28;20476;-67
2023/10/02 02:03:51;;;;;;;109.53;104.40;;;;;;;20.29;57.79;101905.59;4951754;28;20046;-66
2023/10/02 02:06:21;;;;;;;111.35;105.85;;;;;;;20.28;57.35;101903.94;4954404;28;20126;-66
2023/10/02 02:09:01;;;;;;;110.55;104.38;;;;;;;20.26;57.69;101895.19;4957042;28;20043;-68
2023/10/02 02:11:29;;;;;;;109.18;103.90;;;;;;;20.25;57.78;101899.03;4956816;28;20039;-68
2023/10/02 02:13:58;;;;;;;109.78;104.35;;;;;;;20.25;57.46;101895.47;4956995;28;20101;-68
2023/10/02 02:16:33;;;;;;;106.80;101.13;;;;;;;20.24;57.73;101899.31;4956601;28;20126;-68
2023/10/02 02:19:07;;;;;;;109.32;103.72;;;;;;;20.22;57.81;101898.78;4956386;28;20515;-68
2023/10/02 02:21:33;;;;;;;106.70;101.60;;;;;;;20.21;57.40;101895.22;4956403;28;20063;-67
2023/10/02 02:24:07;;;;;;;107.85;102.28;;;;;;;20.20;57.76;101901.78;4956565;28;20066;-67
2023/10/02 02:26:33;;;;;;;113.18;107.40;;;;;;;20.19;57.26;101896.59;4956274;28;20071;-68
2023/10/02 02:29:03;;;;;;;107.20;101.85;;;;;;;20.18;57.91;101886.69;4973726;28;20399;-66
2023/10/02 02:31:29;;;;;;;108.80;103.40;;;;;;;20.18;57.69;101889.44;4970862;28;20484;-68
2023/10/02 02:33:59;;;;;;;108.13;102.43;;;;;;;20.16;57.32;101895.22;4956765;28;20035;-67
2023/10/02 02:36:27;;;;;;;108.80;103.18;;;;;;;20.15;57.38;101887.28;4955789;28;20030;-68
2023/10/02 02:41:39;;;;;;;107.43;102.18;;;;;;;20.13;57.80;101886.72;4956111;28;20097;-68
2023/10/02 02:44:05;;;;;;;106.80;101.50;;;;;;;20.12;57.78;101887.84;4956270;28;20031;-68
2023/10/02 02:46:32;;;;;;;107.57;102.65;;;;;;;20.11;57.32;101887.03;4956188;28;20051;-67
2023/10/02 02:49:00;;;;;;;107.57;101.88;;;;;;;20.09;57.78;101881.78;4956053;28;20039;-66
2023/10/02 02:51:26;;;;;;;110.43;104.85;;;;;;;20.10;57.82;101885.34;4956105;28;20027;-66
2023/10/02 02:53:51;;;;;;;106.32;100.75;;;;;;;20.07;57.77;101886.72;4956097;28;20023;-65
2023/10/02 02:56:22;;;;;;;105.97;100.80;;;;;;;20.07;57.29;101878.50;4973733;28;20142;-68
2023/10/02 02:58:50;;;;;;;108.47;102.55;;;;;;;20.05;57.38;101872.47;4974894;28;20395;-65
2023/10/02 03:01:22;;;;;;;105.78;100.40;;;;;;;20.05;57.63;101874.41;4975021;28;20094;-67
2023/10/02 03:03:55;;;;;;;109.70;104.07;;;;;;;20.04;57.33;101870.03;4956154;28;20035;-65
2023/10/02 03:06:22;;;;;;;106.15;100.70;;;;;;;20.03;57.53;101871.97;4955662;28;20055;-66
2023/10/02 03:08:57;;;;;;;106.72;101.40;;;;;;;20.01;57.90;101867.84;4954429;28;20061;-65
2023/10/02 03:11:28;;;;;;;111.22;105.63;;;;;;;20.00;57.58;101864.25;4955404;28;20392;-65
2023/10/02 03:14:12;;;;;;;109.07;103.57;;;;;;;19.99;57.43;101867.31;4955955;28;20053;-65
2023/10/02 03:16:38;;;;;;;108.88;103.25;;;;;;;19.98;57.40;101857.41;4955501;28;20031;-66
2023/10/02 03:19:07;;;;;;;105.45;100.38;;;;;;;19.97;57.71;101861.28;4955368;28;20035;-65
2023/10/02 03:21:34;;;;;;;107.97;102.53;;;;;;;19.95;57.75;101860.72;4955526;28;20070;-68
2023/10/02 03:24:01;;;;;;;107.65;102.05;;;;;;;19.95;57.40;101855.22;4974824;28;20056;-65
2023/10/02 03:26:27;;;;;;;107.15;101.88;;;;;;;19.93;57.59;101855.50;4974162;28;20440;-66
2023/10/02 03:29:02;;;;;;;109.30;104.05;;;;;;;19.93;57.30;101857.44;4972702;28;20050;-66
2023/10/02 03:31:49;;;;;;;109.85;104.50;;;;;;;19.92;57.57;101870.31;4973211;28;20037;-66
2023/10/02 03:34:30;;;;;;;104.32;99.07;;;;;;;19.89;57.31;101863.47;4974470;28;20031;-66
2023/10/02 03:37:00;;;;;;;106.88;101.00;;;;;;;19.88;57.80;101871.97;4974249;28;20079;-65
2023/10/02 03:42:21;;;;;;;103.65;98.80;;;;;;;19.84;57.75;101866.22;4974040;28;20042;-66
2023/10/02 03:44:49;;;;;;;105.32;100.00;;;;;;;19.83;57.76;101869.25;4972989;28;20035;-66
2023/10/02 03:47:15;;;;;;;104.50;99.32;;;;;;;19.82;57.53;101871.16;4974041;28;20031;-66
2023/10/02 03:49:45;;;;;;;106.80;101.30;;;;;;;19.81;57.84;101866.78;4973815;28;20390;-66
2023/10/02 03:52:17;;;;;;;103.70;98.40;;;;;;;19.82;57.40;101864.88;4974211;28;20423;-66
2023/10/02 03:54:44;;;;;;;107.07;101.43;;;;;;;19.80;57.26;101869.81;4973261;28;20058;-66
2023/10/02 03:57:11;;;;;;;106.07;100.97;;;;;;;19.79;57.33;101866.25;4955061;28;20028;-66
2023/10/02 03:59:52;;;;;;;107.30;102.10;;;;;;;19.78;57.26;101867.34;4954454;28;20499;-66
2023/10/02 04:02:24;;;;;;;105.00;99.65;;;;;;;19.77;57.52;101865.69;4954617;28;20039;-66
2023/10/02 04:04:49;;;;;;;105.57;100.28;;;;;;;19.76;57.73;101871.47;4953758;29;20054;-66
2023/10/02 04:07:17;;;;;;;104.90;99.78;;;;;;;19.75;57.82;101870.63;4954449;28;20487;-66
2023/10/02 04:09:49;;;;;;;105.95;100.53;;;;;;;19.73;57.31;101861.88;4954480;28;20426;-65
2023/10/02 04:12:17;;;;;;;104.07;98.65;;;;;;;19.72;57.77;101868.44;4954610;28;20520;-66
2023/10/02 04:14:43;;;;;;;104.25;99.05;;;;;;;19.72;57.72;101868.44;4954293;28;20043;-65
2023/10/02 04:17:10;;;;;;;105.10;99.50;;;;;;;19.71;57.73;101863.25;4954584;28;20035;-66
2023/10/02 04:19:47;;;;;;;103.45;98.50;;;;;;;19.70;57.66;101864.34;4953912;28;20062;-66
2023/10/02 04:22:25;;;;;;;105.47;99.70;;;;;;;19.69;57.39;101863.53;4954497;28;20027;-66
2023/10/02 04:24:58;;;;;;;103.95;98.80;;;;;;;19.67;57.29;101868.47;4953204;28;20097;-66
2023/10/02 04:28:00;;;;;;;106.70;101.40;;;;;;;19.67;58.00;101869.28;4954408;28;20035;-66
2023/10/02 04:30:24;;;;;;;103.32;97.63;;;;;;;19.64;57.89;101866.25;4972114;28;20050;-66
2023/10/02 04:32:49;;;;;;;105.28;99.72;;;;;;;19.63;57.77;101862.69;4972963;28;20069;-65
2023/10/02 04:38:08;;;;;;;99.93;94.88;;;;;;;19.62;57.72;101865.69;4973327;28;20089;-66
2023/10/02 04:40:44;;;;;;;102.93;97.78;;;;;;;19.60;58.00;101857.72;4972478;28;20095;-69
2023/10/02 04:43:19;;;;;;;106.82;101.25;;;;;;;19.59;57.86;101855.28;4973155;28;20038;-66
2023/10/02 04:46:08;;;;;;;106.90;101.40;;;;;;;19.58;57.61;101859.94;4972523;28;20062;-66
2023/10/02 04:48:42;;;;;;;102.07;96.88;;;;;;;19.56;57.91;101851.19;4972196;28;20035;-66
2023/10/02 04:51:12;;;;;;;101.90;96.95;;;;;;;19.56;57.56;101853.09;4973495;28;20497;-66
2023/10/02 04:53:42;;;;;;;105.85;100.32;;;;;;;19.54;57.70;101856.13;4971785;28;20037;-66
2023/10/02 04:58:49;;;;;;;105.97;100.30;;;;;;;19.53;57.58;101857.22;4972391;28;20101;-66
2023/10/02 05:01:28;;;;;;;101.20;95.90;;;;;;;19.51;57.37;101859.41;4968395;28;20431;-67
2023/10/02 05:04:03;;;;;;;103.38;98.00;;;;;;;19.51;57.60;101855.84;4953212;28;20062;-67
2023/10/02 05:11:55;;;;;;;104.72;99.10;;;;;;;19.47;57.44;101852.81;4953395;28;20046;-66
2023/10/02 05:14:29;;;;;;;102.72;97.90;;;;;;;19.46;57.90;101854.75;4953533;28;20444;-66
2023/10/02 05:17:18;;;;;;;106.63;100.82;;;;;;;19.45;57.85;101860.50;4953464;28;20036;-66
2023/10/02 05:19:56;;;;;;;101.10;95.80;;;;;;;19.44;57.58;101856.13;4953632;28;20170;-66
2023/10/02 05:22:24;;;;;;;102.00;96.90;;;;;;;19.42;57.86;101856.38;4953515;28;20039;-67
2023/10/02 05:24:58;;;;;;;100.72;95.45;;;;;;;19.42;57.54;101859.13;4953250;28;20302;-67
2023/10/02 05:27:29;;;;;;;98.50;93.65;;;;;;;19.40;57.71;101849.53;4953468;28;20023;-67
2023/10/02 05:29:55;;;;;;;102.53;97.05;;;;;;;19.40;57.53;101850.38;4952441;28;20035;-66
2023/10/02 05:32:23;;;;;;;104.07;98.85;;;;;;;19.40;57.49;101849.53;4953705;28;20023;-66
2023/10/02 05:37:40;;;;;;;98.47;93.43;;;;;;;19.38;57.68;101860.78;4953744;28;20250;-66
2023/10/02 05:50:56;;;;;;;102.88;97.30;;;;;;;19.31;57.79;101865.72;4975712;28;20069;-68
2023/10/02 05:53:26;;;;;;;103.93;98.85;;;;;;;19.30;57.68;101865.97;4974384;28;20035;-67
2023/10/02 05:58:33;;;;;;;104.05;98.30;;;;;;;19.29;57.71;101867.91;4957251;28;20046;-66
2023/10/02 06:01:16;;;;;;;102.40;97.22;;;;;;;19.28;57.81;101871.75;4956566;28;20055;-66
2023/10/02 06:03:42;;;;;;;101.63;96.63;;;;;;;19.27;57.69;101878.31;4956686;28;20117;-66
2023/10/02 06:06:15;;;;;;;100.18;94.97;;;;;;;19.26;57.50;101871.19;4956176;28;20119;-66
2023/10/02 06:12:02;;;;;;;99.07;93.72;;;;;;;19.26;57.59;101873.13;4926779;29;20047;-66
2023/10/02 06:14:27;;;;;;;96.93;91.93;;;;;;;19.24;57.67;101881.59;4934482;29;20101;-66
2023/10/02 06:16:53;;;;;;;105.60;100.38;;;;;;;19.23;57.71;101875.31;4946287;28;20055;-66
2023/10/02 06:19:19;;;;;;;99.05;93.85;;;;;;;19.22;58.09;101876.38;4957203;28;20039;-66
2023/10/02 06:21:47;;;;;;;98.55;93.55;;;;;;;19.21;57.99;101872.00;4957254;28;20035;-66
2023/10/02 06:24:16;;;;;;;103.18;97.35;;;;;;;19.22;57.75;101872.84;4956335;28;20171;-66
2023/10/02 06:26:57;;;;;;;99.72;94.78;;;;;;;19.21;57.81;101871.19;4956926;28;20042;-66
2023/10/02 06:29:36;;;;;;;99.45;94.18;;;;;;;19.20;58.14;101875.00;4957166;28;20093;-65
2023/10/02 06:32:05;;;;;;;102.32;97.13;;;;;;;19.18;58.04;101878.03;4956302;28;20030;-66
2023/10/02 06:34:38;;;;;;;100.65;95.55;;;;;;;19.17;58.03;101892.00;4956552;28;20065;-66
2023/10/02 06:37:16;;;;;;;102.68;97.10;;;;;;;19.18;58.13;101894.47;4956045;28;20027;-66
2023/10/02 06:40:04;;;;;;;99.20;94.35;;;;;;;19.16;58.04;101891.19;4956054;28;20396;-66
2023/10/02 06:42:31;;;;;;;98.20;93.00;;;;;;;19.16;57.54;101882.16;4956508;28;20031;-66
2023/10/02 06:45:01;;;;;;;99.10;94.13;;;;;;;19.15;57.79;101885.97;4973687;28;20118;-66
2023/10/02 06:47:29;;;;;;;100.22;95.03;;;;;;;19.14;58.08;101895.28;4973926;28;20479;-66
2023/10/02 06:50:02;;;;;;;100.68;95.20;;;;;;;19.14;58.05;101889.81;4975025;28;20046;-66
2023/10/02 06:52:29;;;;;;;99.72;94.43;;;;;;;19.14;58.18;101878.84;4973724;28;20499;-67
2023/10/02 06:54:56;;;;;;;100.68;95.25;;;;;;;19.14;57.96;101881.59;4974066;28;20065;-67
2023/10/02 06:57:24;;;;;;;99.35;94.03;;;;;;;19.13;57.85;101877.22;4970508;28;20026;-65
2023/10/02 06:59:51;;;;;;;106.85;98.50;;;;;;;19.13;57.87;101872.56;4956005;28;20127;-67
2023/10/02 07:02:25;;;;;;;259.58;122.63;;;;;;;19.13;58.28;101871.75;4955396;28;20027;-68
2023/10/02 07:04:52;;;;;;;110.05;98.43;;;;;;;19.11;57.87;101874.75;4956116;28;20173;-68
2023/10/02 07:07:24;;;;;;;98.80;92.38;;;;;;;19.12;58.23;101872.81;4955754;28;20058;-68
2023/10/02 07:09:51;;;;;;;96.57;90.97;;;;;;;19.12;58.29;101875.56;4955800;28;20387;-68
2023/10/02 07:12:18;;;;;;;103.05;96.85;;;;;;;19.11;57.94;101868.47;4955629;28;20454;-69
2023/10/02 07:14:45;;;;;;;98.40;92.10;;;;;;;19.11;58.15;101871.19;4954419;28;20039;-68
2023/10/02 07:17:17;;;;;;;99.47;94.07;;;;;;;19.11;58.07;101880.22;4955255;28;20042;-67
2023/10/02 07:19:50;;;;;;;96.57;91.43;;;;;;;19.10;58.56;101875.84;4955323;28;20035;-67
2023/10/02 07:22:23;;;;;;;97.40;92.13;;;;;;;19.09;58.00;101871.47;4955251;28;20491;-67
2023/10/02 07:24:52;;;;;;;100.53;95.00;;;;;;;19.10;58.26;101875.00;4955630;28;20392;-67
2023/10/02 07:27:28;;;;;;;99.97;94.03;;;;;;;19.09;58.66;101879.66;4954969;28;20047;-68
2023/10/02 07:30:02;;;;;;;98.38;93.03;;;;;;;19.10;58.74;101880.50;4955508;28;20393;-67
2023/10/02 07:32:31;;;;;;;98.45;92.68;;;;;;;19.09;58.72;101870.63;4955538;28;20123;-67
2023/10/02 07:35:09;;;;;;;98.03;92.40;;;;;;;19.09;58.31;101876.13;4954798;28;20399;-70
2023/10/02 07:37:35;;;;;;;97.25;91.45;;;;;;;19.07;58.32;101868.16;4955508;28;20058;-67
2023/10/02 07:40:02;;;;;;;99.38;93.70;;;;;;;19.09;58.88;101873.38;4954809;28;20031;-67
2023/10/02 07:42:29;;;;;;;97.75;92.15;;;;;;;19.09;58.94;101868.72;4955338;28;20047;-66
2023/10/02 07:45:11;;;;;;;99.03;93.68;;;;;;;19.09;58.84;101870.63;4955398;28;20113;-66
2023/10/02 07:47:55;;;;;;;97.45;91.30;;;;;;;19.09;58.56;101882.41;4954819;28;20031;-66
2023/10/02 07:50:24;;;;;;;95.10;89.80;;;;;;;19.09;59.19;101876.94;4954590;28;20139;-66
2023/10/02 07:52:50;;;;;;;98.82;93.13;;;;;;;19.10;59.07;101889.56;4955269;28;20027;-66
2023/10/02 07:55:15;;;;;;;99.18;93.30;;;;;;;19.11;59.13;101884.88;4954692;28;20042;-66
2023/10/02 07:57:41;;;;;;;97.00;91.55;;;;;;;19.10;58.88;101881.34;4954748;28;20031;-66
2023/10/02 08:02:52;;;;;;;99.53;93.90;;;;;;;19.10;59.12;101884.06;4973125;28;20049;-66
2023/10/02 08:05:20;;;;;;;100.65;94.38;;;;;;;19.10;59.08;101896.91;4973147;28;20038;-66
2023/10/02 08:07:46;;;;;;;102.30;96.13;;;;;;;19.10;59.34;101902.41;4973699;28;20050;-67
2023/10/02 08:10:12;;;;;;;101.53;94.90;;;;;;;19.10;59.76;101895.03;4973204;28;20035;-66
2023/10/02 08:12:54;;;;;;;101.22;95.68;;;;;;;19.12;59.44;101897.47;4973717;28;20034;-66
2023/10/02 08:15:26;;;;;;;98.45;92.95;;;;;;;19.11;59.37;101885.69;4972905;28;20045;-67
2023/10/02 08:20:32;;;;;;;99.35;93.45;;;;;;;19.13;60.01;101888.19;4972310;28;20559;-67
2023/10/02 08:23:02;;;;;;;97.15;91.82;;;;;;;19.13;59.70;101886.25;4972580;28;20045;-66
2023/10/02 08:25:27;;;;;;;99.07;92.82;;;;;;;19.13;60.38;101899.13;4972863;28;20117;-66
2023/10/02 08:27:58;;;;;;;99.20;93.72;;;;;;;19.16;60.49;101898.59;4973031;28;20110;-66
2023/10/02 08:30:31;;;;;;;99.10;93.22;;;;;;;19.16;60.87;101904.06;4973046;28;20049;-66
2023/10/02 08:33:09;;;;;;;106.32;98.10;;;;;;;19.18;61.08;101907.34;4973047;28;20077;-67
2023/10/02 08:35:37;;;;;;;100.78;93.80;;;;;;;19.18;60.87;101902.69;4973157;28;20034;-66
2023/10/02 08:38:07;;;;;;;96.82;91.35;;;;;;;19.20;61.23;101888.72;4973294;28;20031;-66
2023/10/02 08:40:39;;;;;;;101.47;95.95;;;;;;;19.21;61.53;101885.72;4972503;28;20054;-67
2023/10/02 08:43:05;;;;;;;103.05;96.90;;;;;;;19.23;61.48;101894.47;4973093;28;20038;-66
2023/10/02 08:45:33;;;;;;;98.80;93.07;;;;;;;19.26;61.29;101886.81;4973004;28;20027;-66
2023/10/02 08:48:07;;;;;;;102.05;95.88;;;;;;;19.28;61.50;101887.34;4971076;28;20030;-66
2023/10/02 08:50:33;;;;;;;101.72;95.60;;;;;;;19.29;61.63;101881.59;4973075;28;20043;-67
2023/10/02 08:53:04;;;;;;;102.72;96.80;;;;;;;19.31;61.92;101886.81;4971417;28;20117;-67
2023/10/02 08:58:16;;;;;;;101.32;95.65;;;;;;;19.35;62.08;101896.97;4972403;28;20041;-67
2023/10/02 09:01:06;;;;;;;104.47;98.53;;;;;;;19.38;62.58;101895.59;4954313;28;20031;-66
2023/10/02 09:06:44;;;;;;;103.13;97.15;;;;;;;19.41;62.12;101892.31;4953590;28;20423;-66
2023/10/02 09:09:26;;;;;;;101.30;94.90;;;;;;;19.41;62.29;101893.13;4953428;28;20027;-67
2023/10/02 09:11:56;;;;;;;104.47;98.03;;;;;;;19.44;62.00;101889.00;4953933;28;20039;-67
2023/10/02 09:14:39;;;;;;;104.50;98.47;;;;;;;19.46;62.44;101878.59;4953495;28;20039;-67
2023/10/02 09:17:22;;;;;;;103.43;97.53;;;;;;;19.49;62.46;101871.75;4953306;28;20131;-67
2023/10/02 09:19:54;;;;;;;104.35;97.93;;;;;;;19.50;62.07;101882.41;4953539;28;20067;-67
2023/10/02 09:22:25;;;;;;;101.20;95.65;;;;;;;19.54;62.48;101885.44;4953066;28;20039;-67
2023/10/02 09:27:57;;;;;;;107.00;101.25;;;;;;;19.58;61.69;101890.09;4953691;28;20035;-67
2023/10/02 09:33:05;;;;;;;104.68;98.82;;;;;;;19.62;62.37;101893.09;4953452;28;20502;-67
2023/10/02 09:38:02;;;;;;;107.13;100.80;;;;;;;19.70;62.67;101887.09;4953591;28;21058;-67
2023/10/02 09:40:53;;;;;;;107.20;100.45;;;;;;;19.73;62.24;101874.75;4953162;28;20027;-67
2023/10/02 09:43:20;;;;;;;105.50;99.28;;;;;;;19.77;62.82;101876.66;4953257;28;20043;-67
2023/10/02 09:45:47;;;;;;;107.38;101.13;;;;;;;19.81;62.86;101888.72;4952135;28;20039;-67
2023/10/02 09:51:07;;;;;;;108.60;102.20;;;;;;;19.88;63.13;101878.28;4953730;28;20042;-67
2023/10/02 09:53:41;;;;;;;107.25;100.78;;;;;;;19.92;63.13;101881.28;4953121;28;20040;-67
2023/10/02 09:56:16;;;;;;;106.53;100.22;;;;;;;19.96;63.24;101876.91;4953525;28;20035;-67
2023/10/02 09:59:12;;;;;;;108.03;101.20;;;;;;;20.00;62.95;101864.25;4953555;28;20054;-67
2023/10/02 10:01:38;;;;;;;108.40;101.38;;;;;;;20.05;63.37;101871.66;4952988;28;20039;-67
2023/10/02 10:04:31;;;;;;;106.68;100.65;;;;;;;20.09;63.07;101865.34;4953352;28;20035;-67
2023/10/02 10:07:09;;;;;;;106.75;100.38;;;;;;;20.14;63.34;101856.28;4953029;28;20201;-67
2023/10/02 10:09:50;;;;;;;107.68;102.00;;;;;;;20.17;62.85;101861.19;4952770;28;20094;-67
2023/10/02 10:12:50;;;;;;;110.18;102.93;;;;;;;20.21;63.12;101853.22;4953059;28;20460;-67
2023/10/02 10:15:25;;;;;;;111.38;104.88;;;;;;;20.25;63.38;101852.38;4952980;28;20036;-67
2023/10/02 10:17:51;;;;;;;109.45;102.97;;;;;;;20.28;63.00;101851.00;4953277;28;20068;-67
2023/10/02 10:20:20;;;;;;;110.13;102.80;;;;;;;20.31;63.25;101847.72;4953228;28;20035;-67
2023/10/02 10:22:55;;;;;;;112.20;106.10;;;;;;;20.37;62.93;101843.00;4953063;28;20399;-67
2023/10/02 10:27:54;;;;;;;112.07;105.65;;;;;;;20.44;63.02;101836.13;4954135;28;20142;-67
2023/10/02 10:30:28;;;;;;;113.70;107.28;;;;;;;20.49;63.19;101836.09;4956179;28;20128;-71
2023/10/02 10:35:52;;;;;;;116.75;109.43;;;;;;;20.59;63.44;101829.75;4956264;28;20547;-66
2023/10/02 10:38:21;;;;;;;113.25;107.13;;;;;;;20.63;63.07;101822.56;4956403;28;20050;-67
2023/10/02 10:40:50;;;;;;;116.55;109.88;;;;;;;20.67;63.39;101829.13;4956297;28;20070;-66
2023/10/02 10:43:21;;;;;;;119.47;112.63;;;;;;;20.73;63.83;101821.69;4956174;28;20031;-67
2023/10/02 10:45:48;;;;;;;118.07;111.32;;;;;;;20.78;63.87;101816.16;4975394;28;20039;-67
2023/10/02 10:48:24;;;;;;;119.78;113.28;;;;;;;20.84;63.51;101808.69;4975449;28;20098;-66
2023/10/02 10:50:59;;;;;;;117.05;110.45;;;;;;;20.87;63.46;101811.72;4975025;28;20030;-67
2023/10/02 10:53:28;;;;;;;118.50;111.97;;;;;;;20.91;63.63;101815.50;4974576;28;20410;-67
2023/10/02 10:56:05;;;;;;;120.40;114.13;;;;;;;20.97;63.33;101819.06;4975074;28;20039;-67
2023/10/02 10:58:33;;;;;;;123.20;116.15;;;;;;;21.02;63.75;101818.19;4974566;28;20110;-67
2023/10/02 11:01:02;;;;;;;122.07;114.78;;;;;;;21.07;63.60;101818.16;4974861;28;20030;-66
2023/10/02 11:03:30;;;;;;;;;;;;;;;21.11;63.50;101810.97;4974463;28;20039;-67
2023/10/02 11:06:03;;;;;;;116.43;110.32;;;;;;;21.14;63.64;101813.13;4955895;28;19914;-67
2023/10/02 11:08:30;;;;;;;122.80;115.82;;;;;;;21.17;63.70;101812.56;4955044;28;20130;-68
2023/10/02 11:11:04;;;;;;;122.40;115.05;;;;;;;21.21;63.51;101810.88;4973541;28;20423;-66
2023/10/02 11:13:59;;;;;;;120.40;114.03;;;;;;;21.25;63.56;101820.19;4974470;28;20026;-66
2023/10/02 11:16:34;;;;;;;122.50;115.55;;;;;;;21.29;63.46;101818.50;4973741;28;20487;-67
2023/10/02 11:19:21;;;;;;;124.00;117.32;;;;;;;21.32;63.83;101809.69;4974656;28;20030;-67
2023/10/02 11:22:16;;;;;;;126.65;119.47;;;;;;;21.38;63.52;101808.53;4974177;28;20042;-67
2023/10/02 11:24:52;;;;;;;126.95;119.90;;;;;;;21.42;63.58;101814.28;4969967;28;20116;-66
2023/10/02 11:27:19;;;;;;;121.28;114.55;;;;;;;21.46;63.52;101804.34;4955389;28;20073;-67
2023/10/02 11:30:01;;;;;;;127.40;120.38;;;;;;;21.51;63.44;101808.97;4973751;28;20101;-67
2023/10/02 11:32:59;;;;;;;124.78;116.95;;;;;;;21.55;63.72;101810.84;4974173;28;20530;-67
2023/10/02 11:35:28;;;;;;;125.50;118.38;;;;;;;21.60;63.44;101804.50;4974085;28;20039;-67
2023/10/02 11:37:55;;;;;;;126.90;120.25;;;;;;;21.64;63.85;101796.47;4973930;28;20070;-67
2023/10/02 11:40:25;;;;;;;131.52;124.15;;;;;;;21.68;63.84;101792.84;4973687;28;20039;-67
2023/10/02 11:42:53;;;;;;;132.55;125.03;;;;;;;21.74;63.74;101797.16;4959871;28;20031;-66
2023/10/02 11:45:18;;;;;;;127.05;120.28;;;;;;;21.80;64.16;101790.50;4962331;28;20042;-66
2023/10/02 11:47:44;;;;;;;130.70;123.57;;;;;;;21.87;64.21;101783.81;4954830;28;20046;-67
2023/10/02 11:50:11;;;;;;;131.52;124.35;;;;;;;21.93;63.60;101783.47;4955209;28;20063;-67
2023/10/02 11:52:36;;;;;;;133.57;126.00;;;;;;;22.00;64.11;101783.94;4954257;28;20043;-68
2023/10/02 11:55:02;;;;;;;135.27;128.00;;;;;;;22.07;63.86;101782.75;4955819;28;20094;-67
2023/10/02 11:57:27;;;;;;;132.18;124.97;;;;;;;22.12;63.72;101768.91;4955135;28;20361;-67
2023/10/02 11:59:53;;;;;;;132.15;125.15;;;;;;;22.19;63.32;101769.38;4938947;28;20066;-68
2023/10/02 12:02:18;;;;;;;133.40;126.60;;;;;;;22.24;63.52;101775.66;4973888;28;20077;-67
2023/10/02 12:04:44;;;;;;;137.75;130.40;;;;;;;22.28;63.30;101766.84;4953005;28;20237;-67
2023/10/02 12:07:10;;;;;;;133.80;126.93;;;;;;;22.31;63.26;101767.03;4965646;28;20042;-67
2023/10/02 12:09:36;;;;;;;143.25;136.00;;;;;;;22.34;62.72;101766.44;4971802;28;20039;-67
2023/10/02 12:12:02;;;;;;;135.32;128.43;;;;;;;22.37;63.11;101765.03;4964450;28;20050;-66
2023/10/02 12:14:29;;;;;;;141.85;134.35;;;;;;;22.39;62.64;101758.09;4967083;28;20031;-66
2023/10/02 12:16:57;;;;;;;140.10;132.70;;;;;;;22.41;62.82;101758.63;4963458;28;20121;-66
2023/10/02 12:19:26;;;;;;;135.17;127.83;;;;;;;22.44;62.76;101759.97;4965465;28;20522;-66
2023/10/02 12:21:52;;;;;;;140.20;133.23;;;;;;;22.49;62.26;101759.09;4954282;28;20035;-66
2023/10/02 12:24:19;;;;;;;139.20;131.95;;;;;;;22.51;62.51;101762.34;4960875;28;20035;-66